Front Circassia — V7JX6 — position and weather

sailwx.info

Track history (hours):
 
Tides and Currents Weather Stations Pressure Air Temp Water Temp Dewpoint Dewpoint Depression Visibility Wind Speed Wind Dir Waves Ship Positions

Front Circassia

Last reported at 2014-Sep-22 16:23 UTC. Time now 2014-Oct-02 16:29 UTC.
Position N 01°15' E 104°06'.
Warning: this ship's position is 10 days out of date.

Length 333 m; draft 20 m.

Type: Tanker. MMSI: 538002584.

Date/timePositionNaut miles runAvg speedWind from/ knotsBaromVisibWave heightAir tempDewpointWater temp
2014-Sep-22 16:23N 01°15' E 104°06'910.7
2014-Sep-22 15:33N 01°14' E 103°58'4 4.1
2014-Sep-22 14:33N 01°14' E 103°54'0 0.1
2014-Sep-22 13:22N 01°14' E 103°54'0 0.1
2014-Sep-22 12:31N 01°14' E 103°54'0 0.0
2014-Sep-22 11:28N 01°14' E 103°54'0 0.1
2014-Sep-22 10:31N 01°14' E 103°54'0 0.4
2014-Sep-22 09:31N 01°14' E 103°54'0 0.0
2014-Sep-22 08:34N 01°14' E 103°54'1 0.7
2014-Sep-22 07:34N 01°14' E 103°55'4 4.0
2014-Sep-22 06:34N 01°16' E 103°58'3 3.0
2014-Sep-22 05:33N 01°16' E 104°01'1 0.8
2014-Sep-22 04:33N 01°15' E 104°01'2 2.1
2014-Sep-22 03:32N 01°14' E 103°59'4 3.6
2014-Sep-22 02:33N 01°13' E 103°56'8 7.6
2014-Sep-22 01:33N 01°10' E 103°49'7 7.2
2014-Sep-22 00:34N 01°06' E 103°43'7 6.7
2014-Sep-21 23:32N 01°04' E 103°36'8 7.9
2014-Sep-21 22:34N 01°08' E 103°30'  
Track history (hours):
 
Tides and Currents Weather Stations Pressure Air Temp Water Temp Dewpoint Dewpoint Depression Visibility Wind Speed Wind Dir Waves Ship Positions

Front Circassia

Last reported at 2014-Sep-22 16:23 UTC. Time now 2014-Oct-02 16:29 UTC.
Position N 01°15' E 104°06'.
Warning: this ship's position is 10 days out of date.

Length 333 m; draft 20 m.

Type: Tanker. MMSI: 538002584.

Date/timePositionNaut miles runAvg speedWind from/ knotsBaromVisibWave heightAir tempDewpointWater temp
2014-Sep-22 16:23N 01°15' E 104°06'910.7
2014-Sep-22 15:33N 01°14' E 103°58'4 4.1
2014-Sep-22 14:33N 01°14' E 103°54'0 0.1
2014-Sep-22 13:22N 01°14' E 103°54'0 0.1
2014-Sep-22 12:31N 01°14' E 103°54'0 0.0
2014-Sep-22 11:28N 01°14' E 103°54'0 0.1
2014-Sep-22 10:31N 01°14' E 103°54'0 0.4
2014-Sep-22 09:31N 01°14' E 103°54'0 0.0
2014-Sep-22 08:34N 01°14' E 103°54'1 0.7
2014-Sep-22 07:34N 01°14' E 103°55'4 4.0
2014-Sep-22 06:34N 01°16' E 103°58'3 3.0
2014-Sep-22 05:33N 01°16' E 104°01'1 0.8
2014-Sep-22 04:33N 01°15' E 104°01'2 2.1
2014-Sep-22 03:32N 01°14' E 103°59'4 3.6
2014-Sep-22 02:33N 01°13' E 103°56'8 7.6
2014-Sep-22 01:33N 01°10' E 103°49'7 7.2
2014-Sep-22 00:34N 01°06' E 103°43'7 6.7
2014-Sep-21 23:32N 01°04' E 103°36'8 7.9
2014-Sep-21 22:34N 01°08' E 103°30'  

Dump ship's entire track history